Time;durP1;ratioP1;P1;durP2;ratioP2;P2;SDS_P1;SDS_P2;PMS_P1;PMS_P2;Temp;Humidity;BMP_temperature;BMP_pressure;BME280_temperature;BME280_humidity;BME280_pressure;Samples;Min_cycle;Max_cycle;Signal;HPM_P1;HPM_P2
2022/08/25 00:04:06;;;;;;;12.90;7.40;;;;;;;17.78;100.00;98970.41;219739;1277;22556;-75
2022/08/25 00:09:37;;;;;;;8.70;6.90;;;;;;;17.76;100.00;98961.59;220179;1277;22536;-74
2022/08/25 00:14:54;;;;;;;16.20;8.20;;;;;;;17.77;100.00;98967.34;219793;1278;25545;-74
2022/08/25 00:20:57;;;;;;;13.70;7.50;;;;;;;17.76;100.00;98968.40;219779;1277;25518;-76
2022/08/25 00:26:31;;;;;;;;;;;;;;;;;;;;;
2022/08/25 00:32:24;;;;;;;12.10;7.10;;;;;;;17.77;100.00;98973.39;220025;1278;22639;-75
2022/08/25 00:37:59;;;;;;;15.60;7.30;;;;;;;17.78;100.00;98967.61;219892;1277;22629;-75
2022/08/25 00:43:44;;;;;;;15.00;7.40;;;;;;;17.81;100.00;98966.70;219801;1278;24303;-75
2022/08/25 00:49:24;;;;;;;12.10;7.80;;;;;;;17.83;100.00;98958.74;219751;1278;22715;-74
2022/08/25 00:55:10;;;;;;;;;;;;;;;;;;;;;
2022/08/25 01:00:49;;;;;;;15.80;8.40;;;;;;;17.89;100.00;98956.17;219935;1277;22655;-75
2022/08/25 01:06:12;;;;;;;17.90;8.00;;;;;;;17.90;100.00;98949.41;220007;1277;22632;-77
2022/08/25 01:11:20;;;;;;;13.90;7.50;;;;;;;17.92;100.00;98953.59;219894;1278;25311;-75
2022/08/25 01:16:42;;;;;;;16.50;7.70;;;;;;;17.93;100.00;98954.25;219924;1277;26390;-75
2022/08/25 01:21:55;;;;;;;;;;;;;;;17.95;100.00;98948.53;220018;1277;24909;-75
2022/08/25 01:27:17;;;;;;;18.80;8.70;;;;;;;17.96;100.00;98943.98;219337;1284;22913;-76
2022/08/25 01:32:45;;;;;;;18.90;8.50;;;;;;;17.95;100.00;98933.52;219342;1280;22589;-75
2022/08/25 01:38:30;;;;;;;20.60;9.30;;;;;;;17.95;100.00;98929.14;219573;1281;22565;-75
2022/08/25 01:43:57;;;;;;;15.50;9.50;;;;;;;17.93;100.00;98935.14;216020;1281;4070533;-76
2022/08/25 01:49:13;;;;;;;9.80;7.50;;;;;;;17.94;100.00;98929.36;219226;1278;23074;-76
2022/08/25 01:54:22;;;;;;;20.20;10.20;;;;;;;17.98;100.00;98918.73;219899;1277;22702;-75
2022/08/25 01:59:49;;;;;;;;;;;;;;;;;;;;;
2022/08/25 02:04:54;;;;;;;19.30;13.00;;;;;;;18.11;100.00;98918.87;219895;1278;22568;-76
2022/08/25 02:10:14;;;;;;;21.00;12.50;;;;;;;18.12;100.00;98919.98;220457;1277;22576;-75
2022/08/25 02:15:53;;;;;;;;;;;;;;;;;;;;;
2022/08/25 02:21:16;;;;;;;22.20;12.40;;;;;;;18.08;100.00;98928.89;219890;1277;22625;-76
2022/08/25 02:26:35;;;;;;;18.00;12.00;;;;;;;18.05;100.00;98927.62;219674;1277;26394;-75
2022/08/25 02:31:58;;;;;;;17.50;11.00;;;;;;;18.02;100.00;98924.97;219931;1277;22544;-74
2022/08/25 02:37:15;;;;;;;22.00;12.40;;;;;;;17.97;100.00;98923.12;219807;1277;25378;-75
2022/08/25 02:42:58;;;;;;;16.30;12.70;;;;;;;17.94;100.00;98919.67;220583;1276;22611;-75
2022/08/25 02:48:32;;;;;;;22.30;13.60;;;;;;;17.92;100.00;98918.13;219894;1277;24385;-76
2022/08/25 02:53:44;;;;;;;21.40;12.20;;;;;;;17.88;100.00;98914.64;219579;1277;23152;-75
2022/08/25 02:58:49;;;;;;;;;;;;;;;17.86;100.00;98913.92;220072;1276;22532;-76
2022/08/25 03:04:07;;;;;;;21.10;12.20;;;;;;;17.84;100.00;98911.45;219776;1277;22774;-75
2022/08/25 03:09:49;;;;;;;22.10;12.40;;;;;;;17.82;100.00;98901.88;219813;1277;22565;-76
2022/08/25 03:14:56;;;;;;;24.10;13.30;;;;;;;17.80;100.00;98902.13;220033;1277;22559;-75
2022/08/25 03:20:37;;;;;;;20.90;13.30;;;;;;;17.79;100.00;98896.59;220130;1277;22558;-75
2022/08/25 03:31:46;;;;;;;21.50;13.20;;;;;;;17.77;100.00;98894.51;219935;1277;24427;-75
2022/08/25 03:37:09;;;;;;;18.80;12.10;;;;;;;17.75;100.00;98897.33;219958;1276;22719;-76
2022/08/25 03:42:23;;;;;;;18.50;11.60;;;;;;;17.74;100.00;98901.92;220478;1276;24190;-75
2022/08/25 03:48:18;;;;;;;23.40;12.30;;;;;;;17.73;100.00;98900.56;219251;1282;25220;-74
2022/08/25 03:54:00;;;;;;;16.80;10.90;;;;;;;17.73;100.00;98901.27;218328;1284;22618;-75
2022/08/25 03:59:28;;;;;;;;;;;;;;;;;;;;;
2022/08/25 04:04:49;;;;;;;22.50;12.10;;;;;;;17.73;100.00;98909.77;218166;1285;25268;-75
2022/08/25 04:10:28;;;;;;;20.20;11.10;;;;;;;17.73;100.00;98912.77;218421;1282;22610;-75
2022/08/25 04:16:12;;;;;;;18.50;10.20;;;;;;;17.73;100.00;98909.68;218961;1280;25322;-76
2022/08/25 04:21:41;;;;;;;;;;;;;;;;;;;;;
2022/08/25 04:27:15;;;;;;;15.70;10.30;;;;;;;17.73;100.00;98909.61;219956;1278;22548;-74
2022/08/25 04:33:06;;;;;;;21.40;11.80;;;;;;;17.73;100.00;98910.23;219844;1278;22557;-76
2022/08/25 04:38:31;;;;;;;19.70;11.10;;;;;;;17.73;100.00;98911.93;219666;1277;22578;-74
2022/08/25 04:43:59;;;;;;;14.20;9.00;;;;;;;17.72;100.00;98912.13;219834;1279;25389;-75
2022/08/25 04:50:03;;;;;;;18.50;10.30;;;;;;;17.73;100.00;98906.13;219924;1277;24325;-74
2022/08/25 04:55:59;;;;;;;22.20;11.00;;;;;;;17.80;100.00;98909.55;219971;1277;24309;-76
2022/08/25 05:02:21;;;;;;;18.50;10.70;;;;;;;17.85;100.00;98909.65;219878;1277;22593;-74
2022/08/25 05:08:17;;;;;;;17.40;11.20;;;;;;;17.94;100.00;98911.08;220011;1276;24243;-76
2022/08/25 05:13:41;;;;;;;17.20;11.60;;;;;;;18.04;100.00;98912.44;220072;1276;24321;-75
2022/08/25 05:19:42;;;;;;;;;;;;;;;;;;;;;
2022/08/25 05:25:27;;;;;;;15.30;10.80;;;;;;;18.42;100.00;98909.75;219475;1279;22558;-76
2022/08/25 05:30:32;;;;;;;15.40;11.30;;;;;;;18.66;100.00;98907.80;219860;1279;22545;-76
2022/08/25 05:35:52;;;;;;;16.90;11.20;;;;;;;18.92;100.00;98911.89;219352;1279;22710;-75
2022/08/25 05:41:24;;;;;;;15.70;10.10;;;;;;;19.23;100.00;98908.02;219337;1280;22540;-75
2022/08/25 05:46:51;;;;;;;18.70;11.20;;;;;;;19.52;100.00;98906.68;219427;1279;25331;-74
2022/08/25 05:52:19;;;;;;;13.80;9.50;;;;;;;19.82;100.00;98902.91;220135;1277;25254;-76
2022/08/25 05:57:26;;;;;;;19.20;9.20;;;;;;;20.05;100.00;98906.97;220230;1277;22552;-75
2022/08/25 06:02:40;;;;;;;12.20;8.50;;;;;;;20.24;100.00;98907.08;220523;1276;22583;-74
2022/08/25 06:07:50;;;;;;;15.90;8.70;;;;;;;20.44;100.00;98904.76;220626;1276;22611;-74
2022/08/25 06:13:06;;;;;;;;;;;;;;;;;;;;;
2022/08/25 06:18:21;;;;;;;15.40;7.40;;;;;;;20.75;100.00;98885.39;220616;1276;22557;-74
2022/08/25 06:23:35;;;;;;;13.10;6.50;;;;;;;20.91;100.00;98888.02;220417;1276;23193;-74
2022/08/25 06:28:54;;;;;;;15.70;8.60;;;;;;;21.02;100.00;98892.92;220572;1277;22739;-74
2022/08/25 06:33:58;;;;;;;17.60;7.70;;;;;;;21.16;100.00;98898.59;220333;1276;22583;-80
2022/08/25 06:39:01;;;;;;;15.10;7.30;;;;;;;21.29;100.00;98896.37;220265;1277;24374;-78
2022/08/25 06:44:10;;;;;;;11.10;7.00;;;;;;;21.43;100.00;98898.54;220455;1276;22582;-78
2022/08/25 06:49:19;;;;;;;14.20;8.30;;;;;;;21.56;100.00;98903.58;220165;1277;24817;-84
2022/08/25 06:54:22;;;;;;;13.70;8.00;;;;;;;21.74;100.00;98904.92;220296;1276;22548;-78
2022/08/25 06:59:29;;;;;;;22.40;9.40;;;;;;;21.89;100.00;98899.13;220200;1277;23605;-79
2022/08/25 07:04:37;;;;;;;17.20;9.30;;;;;;;22.09;100.00;98896.15;220320;1276;22633;-78
2022/08/25 07:09:42;;;;;;;16.20;8.80;;;;;;;22.30;100.00;98894.56;220307;1276;23330;-79
2022/08/25 07:14:48;;;;;;;22.80;11.30;;;;;;;22.53;100.00;98897.38;220164;1276;22714;-78
2022/08/25 07:20:06;;;;;;;22.80;11.90;;;;;;;22.72;100.00;98896.36;220241;1276;22585;-78
2022/08/25 07:25:35;;;;;;;19.50;10.20;;;;;;;22.94;100.00;98901.42;220651;1276;22727;-78
2022/08/25 07:30:37;;;;;;;18.30;7.90;;;;;;;23.20;100.00;98901.19;220342;1277;22565;-78
2022/08/25 07:35:43;;;;;;;19.20;9.30;;;;;;;23.39;100.00;98900.81;220175;1276;22559;-78
2022/08/25 07:40:53;;;;;;;21.80;12.30;;;;;;;23.56;100.00;98901.88;220443;1276;22809;-79
2022/08/25 07:46:19;;;;;;;31.20;17.00;;;;;;;23.83;100.00;98903.51;220388;1276;23327;-80
2022/08/25 07:51:22;;;;;;;28.80;15.30;;;;;;;24.02;100.00;98902.88;221025;1277;22549;-79
2022/08/25 07:56:33;;;;;;;30.60;15.20;;;;;;;24.13;100.00;98900.32;220343;1276;22669;-78
2022/08/25 08:01:36;;;;;;;32.80;13.80;;;;;;;24.32;100.00;98894.55;220720;1276;25108;-78
2022/08/25 08:07:01;;;;;;;26.40;9.90;;;;;;;24.49;100.00;98895.39;220377;1276;23037;-78
2022/08/25 08:12:10;;;;;;;23.50;8.40;;;;;;;24.57;100.00;98891.55;220964;1280;23793;-80
2022/08/25 08:17:17;;;;;;;17.90;8.10;;;;;;;24.62;100.00;98891.91;219633;1281;25377;-79
2022/08/25 08:22:20;;;;;;;19.90;8.20;;;;;;;24.74;100.00;98897.48;219660;1281;22665;-78
2022/08/25 08:27:32;;;;;;;25.30;9.00;;;;;;;24.90;100.00;98892.73;219531;1280;25450;-81
2022/08/25 08:32:34;;;;;;;21.70;7.60;;;;;;;25.03;100.00;98896.80;219813;1280;25264;-80
2022/08/25 08:38:14;;;;;;;20.20;7.20;;;;;;;25.15;100.00;98902.04;220825;1281;22687;-80
2022/08/25 08:43:26;;;;;;;18.10;7.30;;;;;;;25.20;99.97;98892.98;221514;1276;23127;-82
2022/08/25 08:49:03;;;;;;;23.20;7.90;;;;;;;25.33;99.64;98891.73;221086;1279;25615;-79
2022/08/25 08:54:17;;;;;;;24.40;8.50;;;;;;;25.48;98.82;98890.00;221713;1276;22522;-80
2022/08/25 08:59:25;;;;;;;18.80;8.10;;;;;;;25.62;98.99;98893.26;221907;1276;22544;-79
2022/08/25 09:04:57;;;;;;;19.60;8.40;;;;;;;25.75;98.91;98890.95;221794;1276;22567;-80
2022/08/25 09:10:23;;;;;;;17.80;7.90;;;;;;;25.82;97.75;98891.20;221012;1279;22614;-78
2022/08/25 09:22:05;;;;;;;17.60;7.60;;;;;;;26.09;96.98;98891.98;221377;1279;24468;-85
2022/08/25 09:27:42;;;;;;;19.70;9.00;;;;;;;26.17;96.86;98884.55;219856;1279;22641;-78
2022/08/25 09:33:02;;;;;;;19.10;8.40;;;;;;;26.28;96.97;98885.33;220033;1276;23072;-81
2022/08/25 09:38:12;;;;;;;18.60;8.10;;;;;;;26.35;95.73;98886.04;211190;1276;1004688;-78
2022/08/25 09:43:33;;;;;;;24.30;8.70;;;;;;;26.40;95.80;98882.91;110005;1276;1016278;-77
2022/08/25 09:48:52;;;;;;;23.40;8.60;;;;;;;26.54;95.33;98877.95;109982;1277;1016258;-77
2022/08/25 09:54:16;;;;;;;22.90;8.80;;;;;;;26.57;94.83;98875.91;109936;1276;1016420;-76
2022/08/25 09:59:31;;;;;;;25.20;8.80;;;;;;;26.64;94.62;98869.16;109913;1277;1019081;-77
2022/08/25 10:05:23;;;;;;;23.80;9.10;;;;;;;26.77;94.53;98867.05;109937;1277;1018793;-77
2022/08/25 10:10:38;;;;;;;21.20;8.80;;;;;;;26.99;94.19;98862.83;109888;1277;1016160;-78
2022/08/25 10:16:07;;;;;;;26.90;10.00;;;;;;;27.31;93.81;98856.91;109825;1276;1017767;-78
2022/08/25 10:21:24;;;;;;;24.20;9.20;;;;;;;27.40;93.07;98846.21;109806;1276;1016385;-79
2022/08/25 10:26:47;;;;;;;22.60;8.60;;;;;;;27.34;93.01;98845.74;110113;1277;1016377;-80
2022/08/25 10:31:58;;;;;;;22.50;9.30;;;;;;;27.39;93.28;98838.42;110030;1276;1017195;-80
2022/08/25 10:37:32;;;;;;;22.60;8.50;;;;;;;27.64;92.80;98833.89;110116;1276;1018571;-79
2022/08/25 10:43:05;;;;;;;22.10;9.60;;;;;;;27.96;92.32;98834.72;109912;1276;1017633;-80
2022/08/25 10:48:44;;;;;;;18.60;9.10;;;;;;;28.30;91.71;98832.50;110701;1279;1016504;-80
2022/08/25 10:54:18;;;;;;;21.40;8.00;;;;;;;28.62;89.87;98829.46;110545;1276;1017380;-79
2022/08/25 10:59:55;;;;;;;25.20;8.70;;;;;;;28.73;89.09;98824.09;110591;1276;1016500;-79
2022/08/25 11:05:43;;;;;;;38.50;10.80;;;;;;;28.88;88.66;98823.76;110498;1276;1018461;-79
2022/08/25 11:11:25;;;;;;;30.20;10.20;;;;;;;28.95;87.53;98822.98;110004;1276;1016540;-80
2022/08/25 11:16:34;;;;;;;24.50;8.50;;;;;;;29.09;87.64;98812.10;110950;1276;1017848;-80
2022/08/25 11:22:08;;;;;;;31.00;10.00;;;;;;;29.27;86.99;98807.15;110343;1276;1016631;-79
2022/08/25 11:27:19;;;;;;;29.60;9.40;;;;;;;29.51;85.98;98796.03;177603;1276;1016378;-78
2022/08/25 11:32:25;;;;;;;29.80;9.50;;;;;;;29.68;85.39;98788.14;110022;1276;1017521;-79
2022/08/25 11:37:32;;;;;;;30.00;9.50;;;;;;;29.60;84.60;98781.94;110125;1276;1016227;-77
2022/08/25 11:42:41;;;;;;;27.00;9.50;;;;;;;29.48;84.42;98775.83;109955;1276;1016426;-77
2022/08/25 11:48:07;;;;;;;32.70;10.40;;;;;;;29.46;84.38;98772.39;110086;1278;1016699;-77
2022/08/25 11:53:39;;;;;;;24.20;9.10;;;;;;;29.61;83.44;98762.16;130553;1276;1016643;-77
2022/08/25 11:58:48;;;;;;;;;;;;;;;29.74;83.52;98754.37;113441;1276;1016596;-77
2022/08/25 12:04:11;;;;;;;30.20;8.50;;;;;;;29.82;82.34;98749.36;198562;1276;1015123;-77
2022/08/25 12:09:19;;;;;;;32.30;8.20;;;;;;;29.81;81.90;98750.56;109852;1277;1016658;-77
2022/08/25 12:14:45;;;;;;;31.50;8.90;;;;;;;29.84;81.52;98747.44;109947;1276;1016862;-81
2022/08/25 12:19:53;;;;;;;28.00;8.50;;;;;;;29.96;81.41;98744.73;110354;1279;1016216;-81
2022/08/25 12:25:12;;;;;;;22.70;10.10;;;;;;;30.11;80.56;98740.77;110526;1276;1016285;-79
2022/08/25 12:30:38;;;;;;;22.80;8.60;;;;;;;30.14;79.86;98743.63;110231;1276;1017890;-80
2022/08/25 12:36:30;;;;;;;24.80;9.00;;;;;;;30.16;78.98;98737.98;110190;1276;1016989;-80
2022/08/25 12:41:58;;;;;;;25.00;8.30;;;;;;;30.25;78.66;98735.08;110493;1278;1016999;-81
2022/08/25 12:47:31;;;;;;;22.10;7.30;;;;;;;30.29;77.91;98730.81;110385;1277;1016708;-82
2022/08/25 12:52:39;;;;;;;19.60;7.10;;;;;;;30.51;76.45;98728.84;110902;1277;1016298;-81
2022/08/25 12:57:59;;;;;;;24.60;8.00;;;;;;;30.70;75.22;98718.36;110052;1279;1016766;-79
2022/08/25 13:03:48;;;;;;;22.80;6.90;;;;;;;30.80;74.07;98717.59;109804;1279;1016921;-80
2022/08/25 13:09:41;;;;;;;14.30;6.40;;;;;;;30.84;72.32;98717.90;110135;1279;1017242;-77
2022/08/25 13:14:50;;;;;;;17.10;6.60;;;;;;;30.82;70.99;98717.16;110995;1276;1016563;-79
2022/08/25 13:20:32;;;;;;;22.00;8.90;;;;;;;30.85;70.30;98713.14;109997;1276;1017927;-79
2022/08/25 13:25:56;;;;;;;21.00;7.20;;;;;;;30.95;70.12;98705.27;110881;1277;1016624;-80
2022/08/25 13:31:26;;;;;;;17.30;7.40;;;;;;;31.06;69.67;98700.70;110916;1276;1016675;-80
2022/08/25 13:42:16;;;;;;;14.80;7.10;;;;;;;31.29;69.17;98694.59;110961;1276;1016489;-81
2022/08/25 13:47:35;;;;;;;18.60;7.40;;;;;;;31.44;68.10;98694.24;109780;1276;2667185;-81
2022/08/25 13:53:30;;;;;;;19.80;6.80;;;;;;;31.49;67.90;98691.41;110890;1276;1016455;-81
2022/08/25 13:58:42;;;;;;;23.00;7.20;;;;;;;31.52;67.05;98692.13;110599;1276;1016891;-80
2022/08/25 14:03:48;;;;;;;11.40;5.80;;;;;;;31.21;65.63;98689.95;110058;1278;1016527;-81
2022/08/25 14:08:56;;;;;;;16.90;6.50;;;;;;;30.88;64.97;98679.66;110533;1276;1016527;-79
2022/08/25 14:14:11;;;;;;;21.10;6.70;;;;;;;30.69;65.31;98680.55;109839;1276;1016669;-80
2022/08/25 14:19:17;;;;;;;24.50;6.70;;;;;;;30.74;65.95;98673.02;110067;1276;1016773;-80
2022/08/25 14:24:22;;;;;;;18.10;6.50;;;;;;;30.97;65.92;98669.84;109844;1276;1016316;-80
2022/08/25 14:29:30;;;;;;;12.60;5.30;;;;;;;31.12;64.98;98669.30;109914;1279;1016552;-80
2022/08/25 14:34:51;;;;;;;17.50;6.70;;;;;;;31.18;64.18;98658.55;109999;1276;1017612;-80
2022/08/25 14:39:53;;;;;;;21.00;6.60;;;;;;;31.05;64.05;98655.46;109573;1279;1016652;-80
2022/08/25 14:44:59;;;;;;;10.70;5.70;;;;;;;30.81;64.20;98653.12;109723;1276;1016615;-80
2022/08/25 14:50:06;;;;;;;22.50;6.40;;;;;;;30.53;64.61;98644.95;109721;1279;1016447;-80
2022/08/25 14:55:12;;;;;;;18.30;6.30;;;;;;;30.46;65.79;98642.01;109813;1276;1016519;-80
2022/08/25 15:00:39;;;;;;;10.50;5.50;;;;;;;30.58;65.67;98641.77;109831;1277;1016571;-80
2022/08/25 15:05:42;;;;;;;8.80;4.50;;;;;;;30.65;63.92;98641.38;109816;1277;1016940;-80
2022/08/25 15:10:47;;;;;;;17.10;5.70;;;;;;;30.67;62.90;98639.04;109811;1276;1016548;-80
2022/08/25 15:15:53;;;;;;;17.40;5.70;;;;;;;30.68;62.49;98640.04;109732;1276;1016671;-80
2022/08/25 15:21:03;;;;;;;13.40;5.30;;;;;;;30.68;62.67;98637.98;109746;1276;1016547;-81
2022/08/25 15:26:10;;;;;;;16.70;5.00;;;;;;;30.67;62.72;98636.92;110107;1277;1016377;-81
2022/08/25 15:31:29;;;;;;;20.00;4.90;;;;;;;30.67;62.79;98639.98;109915;1277;1016678;-80
2022/08/25 15:36:36;;;;;;;13.10;4.90;;;;;;;30.64;61.43;98635.41;109763;1277;1016529;-80
2022/08/25 15:41:39;;;;;;;18.10;8.60;;;;;;;30.56;61.45;98632.80;110027;1276;1016996;-79
2022/08/25 15:46:46;;;;;;;11.90;5.60;;;;;;;30.51;61.48;98629.11;109769;1277;1018235;-80
2022/08/25 15:52:05;;;;;;;19.60;5.60;;;;;;;30.45;61.12;98630.50;110190;1276;1016573;-79
2022/08/25 15:57:07;;;;;;;18.10;5.40;;;;;;;30.38;61.48;98621.39;109854;1276;1016624;-81
2022/08/25 16:02:26;;;;;;;19.30;5.00;;;;;;;30.31;61.63;98619.00;109969;1277;1017837;-80
2022/08/25 16:07:28;;;;;;;16.00;4.90;;;;;;;30.19;61.71;98617.35;109709;1276;1016836;-79
2022/08/25 16:12:38;;;;;;;14.00;5.00;;;;;;;30.07;62.11;98613.96;109846;1276;1017090;-79
2022/08/25 16:17:44;;;;;;;13.60;4.50;;;;;;;29.92;62.30;98617.00;109716;1277;1019803;-79
2022/08/25 16:23:01;;;;;;;10.50;4.70;;;;;;;29.76;62.63;98622.31;109754;1277;1016843;-80
2022/08/25 16:28:05;;;;;;;15.90;5.40;;;;;;;29.64;62.72;98622.05;109658;1277;1016760;-79
2022/08/25 16:33:23;;;;;;;14.90;5.20;;;;;;;29.47;63.50;98620.30;109746;1276;1020677;-80
2022/08/25 16:38:29;;;;;;;15.80;5.60;;;;;;;29.31;64.48;98618.05;109835;1276;1018969;-79
2022/08/25 16:43:31;;;;;;;16.30;5.10;;;;;;;29.16;65.09;98616.35;109739;1277;1017462;-80
2022/08/25 16:48:36;;;;;;;16.10;4.80;;;;;;;29.07;65.61;98615.16;109616;1277;1016514;-80
2022/08/25 16:59:13;;;;;;;14.20;4.60;;;;;;;28.66;65.90;98614.23;110144;1277;1016202;-79
2022/08/25 17:04:43;;;;;;;9.60;4.40;;;;;;;28.42;66.28;98615.00;110010;1277;1016146;-80
2022/08/25 17:10:16;;;;;;;14.90;5.00;;;;;;;28.16;66.71;98618.16;109875;1277;1016680;-80
2022/08/25 17:15:22;;;;;;;11.70;4.80;;;;;;;27.93;67.67;98622.48;109810;1277;1018105;-79
2022/08/25 17:20:37;;;;;;;18.40;5.00;;;;;;;27.70;68.42;98617.02;109755;1278;1016720;-79
2022/08/25 17:26:14;;;;;;;21.20;5.60;;;;;;;27.43;68.94;98620.34;109820;1277;1016696;-79
2022/08/25 17:31:17;;;;;;;11.90;4.40;;;;;;;27.21;68.97;98626.77;109832;1277;1016254;-79
2022/08/25 17:36:22;;;;;;;15.30;5.50;;;;;;;27.00;69.27;98629.59;109713;1277;1017127;-79
2022/08/25 17:41:30;;;;;;;19.50;6.80;;;;;;;26.76;69.49;98627.68;109733;1277;1018401;-79
2022/08/25 17:46:41;;;;;;;19.80;6.50;;;;;;;26.55;69.63;98627.93;109794;1277;1016315;-80
2022/08/25 17:52:18;;;;;;;;;;;;;;;;;;;;;
2022/08/25 17:57:36;;;;;;;16.40;5.50;;;;;;;26.07;70.31;98629.60;109780;1277;1016655;-80
2022/08/25 18:02:42;;;;;;;21.50;5.90;;;;;;;25.87;70.72;98631.26;109843;1278;1016617;-81
2022/08/25 18:07:46;;;;;;;15.10;5.20;;;;;;;25.67;70.98;98636.38;109757;1278;1018308;-80
2022/08/25 18:13:11;;;;;;;16.70;5.40;;;;;;;25.49;71.58;98636.70;109696;1278;1016668;-80
2022/08/25 18:18:18;;;;;;;17.00;6.10;;;;;;;25.30;72.05;98638.17;109718;1278;1017283;-80
2022/08/25 18:23:48;;;;;;;14.80;6.10;;;;;;;25.13;72.32;98642.46;109695;1277;1017309;-79
2022/08/25 18:28:54;;;;;;;16.30;6.20;;;;;;;24.94;72.80;98644.14;109775;1277;1017592;-80
2022/08/25 18:33:59;;;;;;;18.00;6.20;;;;;;;24.78;73.34;98644.17;109857;1277;1016406;-80
2022/08/25 18:44:26;;;;;;;19.00;6.50;;;;;;;24.48;74.19;98656.02;109604;1278;1017610;-80
2022/08/25 18:49:28;;;;;;;16.80;6.40;;;;;;;24.33;74.70;98657.75;109803;1281;1016418;-79
2022/08/25 18:54:31;;;;;;;17.50;5.90;;;;;;;24.20;74.93;98656.82;109646;1280;1016304;-80
2022/08/25 18:59:39;;;;;;;21.10;8.40;;;;;;;24.07;75.55;98658.00;109852;1277;1016695;-80
2022/08/25 19:04:51;;;;;;;14.60;6.50;;;;;;;23.95;75.86;98663.71;109843;1278;1016673;-80
2022/08/25 19:09:53;;;;;;;18.80;7.20;;;;;;;23.82;76.27;98660.23;110081;1277;1016250;-80
2022/08/25 19:14:56;;;;;;;15.40;7.60;;;;;;;23.71;77.03;98659.06;109664;1277;1016573;-81
2022/08/25 19:20:04;;;;;;;14.80;7.10;;;;;;;23.60;77.81;98668.29;109781;1277;1018962;-80
2022/08/25 19:25:12;;;;;;;16.60;6.80;;;;;;;23.47;78.23;98663.79;109828;1278;1016747;-80
2022/08/25 19:30:20;;;;;;;20.00;6.60;;;;;;;23.33;78.62;98666.27;109661;1277;1017708;-80
2022/08/25 19:35:27;;;;;;;18.90;6.70;;;;;;;23.22;79.09;98665.60;109784;1278;1016278;-80
2022/08/25 19:40:41;;;;;;;18.10;6.80;;;;;;;23.10;79.28;98659.54;109711;1277;1016629;-80
2022/08/25 19:45:47;;;;;;;18.10;6.90;;;;;;;22.99;79.59;98652.23;109805;1277;1017984;-79
2022/08/25 19:50:50;;;;;;;14.90;6.60;;;;;;;22.90;79.81;98650.88;109753;1277;1017380;-80
2022/08/25 19:56:07;;;;;;;15.90;6.60;;;;;;;22.79;80.13;98647.48;109791;1276;1017022;-80
2022/08/25 20:01:15;;;;;;;23.30;6.60;;;;;;;22.68;80.38;98641.76;109938;1277;1017081;-80
2022/08/25 20:06:19;;;;;;;14.80;6.80;;;;;;;22.59;80.73;98643.52;109761;1276;1016650;-79
2022/08/25 20:11:26;;;;;;;14.50;6.70;;;;;;;22.50;81.15;98643.66;109696;1277;1017744;-79
2022/08/25 20:16:35;;;;;;;15.30;6.90;;;;;;;22.41;81.39;98639.49;109922;1277;1016422;-79
2022/08/25 20:21:43;;;;;;;19.10;8.10;;;;;;;22.35;81.55;98637.16;109669;1279;1016583;-79
2022/08/25 20:27:19;;;;;;;17.60;8.50;;;;;;;22.31;81.82;98632.80;109743;1277;1016463;-79
2022/08/25 20:32:54;;;;;;;17.30;9.00;;;;;;;22.29;82.02;98631.05;109729;1276;1016630;-80
2022/08/25 20:38:03;;;;;;;19.10;8.10;;;;;;;22.25;82.33;98631.39;109783;1276;1017227;-79
2022/08/25 20:43:44;;;;;;;21.40;8.40;;;;;;;22.18;82.62;98635.34;109741;1277;1016581;-79
2022/08/25 20:48:56;;;;;;;20.70;7.50;;;;;;;22.10;83.01;98635.94;109894;1277;1016118;-79
2022/08/25 20:55:07;;;;;;;;;;;;;;;;;;;;;
2022/08/25 21:00:16;;;;;;;16.70;7.80;;;;;;;21.94;83.77;98629.95;109869;1276;1019352;-80
2022/08/25 21:05:28;;;;;;;26.40;8.40;;;;;;;21.86;83.91;98626.96;109711;1277;1017222;-80
2022/08/25 21:11:02;;;;;;;19.70;8.70;;;;;;;21.78;84.30;98626.54;110249;1276;1016387;-80
2022/08/25 21:16:17;;;;;;;21.00;8.10;;;;;;;21.69;84.63;98623.38;109806;1276;1017048;-79
2022/08/25 21:21:29;;;;;;;25.10;8.20;;;;;;;21.62;84.94;98623.95;109917;1277;1016238;-79
2022/08/25 21:26:34;;;;;;;14.00;8.10;;;;;;;21.54;85.29;98621.34;109837;1277;1018908;-79
2022/08/25 21:31:39;;;;;;;22.20;8.90;;;;;;;21.46;85.60;98618.77;109775;1276;1016517;-79
2022/08/25 21:36:55;;;;;;;20.00;9.80;;;;;;;21.37;85.91;98612.24;109891;1276;1016547;-80
2022/08/25 21:42:02;;;;;;;22.60;10.00;;;;;;;21.29;86.04;98614.54;109723;1277;1016577;-79
2022/08/25 21:47:18;;;;;;;21.10;10.00;;;;;;;21.23;86.29;98616.69;109780;1276;1016708;-81
2022/08/25 21:52:22;;;;;;;29.40;9.20;;;;;;;21.17;86.68;98616.36;109745;1276;1016550;-80
2022/08/25 21:57:35;;;;;;;22.70;9.70;;;;;;;21.11;86.94;98613.52;109766;1279;1019094;-80
2022/08/25 22:02:42;;;;;;;22.50;10.10;;;;;;;21.04;87.13;98600.88;109830;1276;1016590;-79
2022/08/25 22:07:48;;;;;;;23.30;10.10;;;;;;;20.98;87.30;98601.24;109765;1276;1018871;-80
2022/08/25 22:12:53;;;;;;;19.80;9.90;;;;;;;20.93;87.55;98594.00;109858;1277;1016230;-80
2022/08/25 22:17:56;;;;;;;23.80;9.20;;;;;;;20.85;87.70;98595.89;109781;1276;1016746;-79
2022/08/25 22:23:01;;;;;;;22.50;9.80;;;;;;;20.78;87.94;98602.05;109840;1275;1016692;-79
2022/08/25 22:28:30;;;;;;;23.00;10.00;;;;;;;20.69;88.31;98599.39;109670;1276;1016696;-80
2022/08/25 22:33:36;;;;;;;24.40;9.80;;;;;;;20.62;88.68;98591.30;109816;1276;1016334;-79
2022/08/25 22:38:58;;;;;;;19.70;9.30;;;;;;;20.54;88.85;98595.59;109753;1276;1017022;-79
2022/08/25 22:44:07;;;;;;;17.00;9.80;;;;;;;20.47;89.36;98592.11;109803;1276;1017092;-79
2022/08/25 22:49:34;;;;;;;23.20;9.80;;;;;;;20.38;89.89;98586.02;109409;1280;1016092;-78
2022/08/25 22:54:42;;;;;;;23.00;10.10;;;;;;;20.28;90.25;98577.15;109384;1280;1016859;-79
2022/08/25 23:00:12;;;;;;;22.70;10.60;;;;;;;20.19;90.59;98571.13;109499;1280;1016255;-80
2022/08/25 23:05:23;;;;;;;26.20;11.20;;;;;;;20.08;90.87;98567.86;109508;1281;1016709;-79
2022/08/25 23:10:31;;;;;;;25.00;11.70;;;;;;;19.98;91.08;98565.02;109299;1281;1016700;-80
2022/08/25 23:15:34;;;;;;;29.60;10.60;;;;;;;19.88;91.42;98565.04;109517;1279;1016549;-80
2022/08/25 23:27:04;;;;;;;26.80;10.00;;;;;;;19.65;92.35;98560.34;109712;1277;1016455;-79
2022/08/25 23:32:10;;;;;;;22.30;9.20;;;;;;;19.59;92.73;98560.09;109773;1277;1016408;-80
2022/08/25 23:37:21;;;;;;;20.20;8.90;;;;;;;19.52;93.08;98555.69;109703;1277;1019038;-79
2022/08/25 23:42:33;;;;;;;20.40;8.50;;;;;;;19.46;93.63;98550.11;109536;1279;1016729;-80
2022/08/25 23:47:51;;;;;;;21.00;9.30;;;;;;;19.38;93.99;98546.90;109625;1277;1019156;-80
2022/08/25 23:52:54;;;;;;;20.60;9.30;;;;;;;19.28;94.45;98548.15;109731;1277;1016608;-80
2022/08/25 23:58:08;;;;;;;20.20;10.00;;;;;;;19.20;95.07;98541.90;109784;1277;1016725;-79
